Terminal Aerodrome Forecast
Issued by NWS Wilmington, NC

Current Version | Previous Version | Graphics & Text | Print | Product List | Glossary Off
Versions: 1 2 3 4 5 6 7 8 9 10 11 12 13 14 15 16 17 18 19 20 21 22 23 24

000
FTUS42 KILM 271427 AAB
TAFFLO
TAF AMD
KFLO 271427Z 2714/2812 14003KT P6SM BKN010
     FM271530 14003KT P6SM SCT030 SCT250
     FM272000 15006KT P6SM SCT040 SCT250
     FM280000 19003KT P6SM BKN150=

USA.gov is the U.S. government's official web portal to all federal, state and local government web resources and services.